Time;durP1;ratioP1;P1;durP2;ratioP2;P2;SDS_P1;SDS_P2;PMS_P1;PMS_P2;Temp;Humidity;BMP_temperature;BMP_pressure;BME280_temperature;BME280_humidity;BME280_pressure;Samples;Min_cycle;Max_cycle;Signal;HPM_P1;HPM_P2
2023/06/13 00:02:17;;;;;;;4.80;4.50;;;21.00;31.80;;;;;;20750;6827;123648;-74
2023/06/13 00:04:43;;;;;;;4.73;4.17;;;20.70;31.80;;;;;;20764;6825;118217;-75
2023/06/13 00:07:09;;;;;;;4.50;4.10;;;20.60;32.00;;;;;;20763;6826;117386;-74
2023/06/13 00:09:35;;;;;;;5.33;4.40;;;20.30;32.30;;;;;;20742;6826;117061;-76
2023/06/13 00:12:00;;;;;;;5.57;4.50;;;20.30;32.30;;;;;;20750;6826;118245;-74
2023/06/13 00:14:26;;;;;;;4.50;4.20;;;20.20;32.50;;;;;;20695;6822;118637;-75
2023/06/13 00:16:51;;;;;;;5.00;4.70;;;20.10;32.70;;;;;;20551;6822;290473;-75
2023/06/13 00:19:17;;;;;;;5.60;4.53;;;20.40;33.10;;;;;;20768;6822;116995;-74
2023/06/13 00:21:43;;;;;;;4.70;4.30;;;20.30;33.00;;;;;;20765;6822;117536;-74
2023/06/13 00:24:08;;;;;;;4.30;4.00;;;20.30;33.00;;;;;;20760;6823;117096;-74
2023/06/13 00:26:34;;;;;;;4.45;4.15;;;20.00;33.50;;;;;;20750;6823;117209;-75
2023/06/13 00:29:00;;;;;;;4.57;4.27;;;20.00;33.40;;;;;;20765;6823;117225;-74
2023/06/13 00:31:28;;;;;;;5.10;4.57;;;20.00;33.30;;;;;;20785;6823;117076;-75
2023/06/13 00:33:51;;;;;;;6.17;5.30;;;19.90;33.20;;;;;;20564;6823;311243;-74
2023/06/13 00:36:20;;;;;;;4.63;4.27;;;20.20;33.00;;;;;;20748;6822;123047;-74
2023/06/13 00:38:47;;;;;;;4.63;4.33;;;20.30;32.70;;;;;;20578;6822;307860;-75
2023/06/13 00:41:12;;;;;;;4.60;4.20;;;20.50;32.40;;;;;;20533;6828;289936;-75
2023/06/13 00:43:37;;;;;;;4.73;4.33;;;20.90;31.90;;;;;;20531;6823;338011;-75
2023/06/13 00:46:03;;;;;;;4.57;4.18;;;21.20;31.50;;;;;;20785;6822;117035;-75
2023/06/13 00:48:28;;;;;;;4.47;4.10;;;21.10;31.60;;;;;;20553;6822;277430;-75
2023/06/13 00:50:54;;;;;;;4.70;4.30;;;21.10;31.50;;;;;;20572;6822;307443;-75
2023/06/13 00:53:21;;;;;;;4.20;3.93;;;21.30;31.20;;;;;;20759;6827;120658;-75
2023/06/13 00:55:45;;;;;;;5.23;4.40;;;21.20;31.40;;;;;;20582;6820;289157;-76
2023/06/13 00:58:10;;;;;;;4.77;4.37;;;21.20;31.40;;;;;;20569;6822;277182;-75
2023/06/13 01:00:36;;;;;;;4.60;4.30;;;21.40;30.90;;;;;;20531;6822;323792;-76
2023/06/13 01:03:09;;;;;;;3.87;3.53;;;21.50;31.10;;;;;;20776;6822;117041;-75
2023/06/13 01:05:31;;;;;;;4.70;4.30;;;21.30;31.20;;;;;;20527;6827;277565;-75
2023/06/13 01:07:57;;;;;;;3.97;3.77;;;21.20;31.50;;;;;;20777;6820;117094;-75
2023/06/13 01:10:21;;;;;;;4.27;3.93;;;21.00;31.50;;;;;;20725;6822;119743;-75
2023/06/13 01:12:47;;;;;;;4.17;3.87;;;20.70;31.80;;;;;;20770;6822;118009;-74
2023/06/13 01:15:13;;;;;;;5.00;3.97;;;20.40;32.10;;;;;;20705;6825;117348;-75
2023/06/13 01:17:41;;;;;;;4.68;4.18;;;20.20;32.40;;;;;;20553;6819;276479;-75
2023/06/13 01:20:10;;;;;;;4.57;4.07;;;20.70;32.50;;;;;;20547;6821;277943;-74
2023/06/13 01:22:52;;;;;;;4.03;3.70;;;20.70;32.50;;;;;;20756;6822;118152;-74
2023/06/13 01:25:37;;;;;;;4.45;4.15;;;20.60;32.30;;;;;;20510;6837;337018;-75
2023/06/13 01:27:56;;;;;;;4.73;4.20;;;20.70;32.50;;;;;;20536;6822;286245;-75
2023/06/13 01:30:21;;;;;;;4.60;4.07;;;20.90;32.20;;;;;;20529;6822;312216;-74
2023/06/13 01:32:47;;;;;;;4.20;3.80;;;21.10;32.10;;;;;;20773;6822;117691;-74
2023/06/13 01:35:12;;;;;;;5.00;4.35;;;20.80;32.00;;;;;;20541;6822;277115;-75
2023/06/13 01:37:39;;;;;;;4.50;4.20;;;20.90;32.80;;;;;;20507;6837;337940;-75
2023/06/13 01:40:05;;;;;;;4.17;3.87;;;20.90;32.20;;;;;;20755;6822;117035;-74
2023/06/13 01:42:30;;;;;;;4.60;4.20;;;20.70;32.20;;;;;;20528;6822;337398;-75
2023/06/13 01:44:56;;;;;;;4.60;4.10;;;20.70;32.40;;;;;;20558;6822;301578;-76
2023/06/13 01:47:38;;;;;;;3.97;3.67;;;20.80;32.60;;;;;;20761;6822;120707;-75
2023/06/13 01:50:06;;;;;;;4.95;4.55;;;20.60;32.60;;;;;;20543;6822;307468;-75
2023/06/13 01:52:49;;;;;;;4.77;4.47;;;20.60;33.00;;;;;;20549;6822;308889;-75
2023/06/13 01:55:14;;;;;;;4.97;4.03;;;20.80;32.70;;;;;;20774;6822;116974;-74
2023/06/13 01:57:40;;;;;;;4.50;4.20;;;20.50;32.80;;;;;;20026;6837;347409;-75
2023/06/13 02:00:06;;;;;;;4.60;4.20;;;20.50;33.10;;;;;;20514;6822;291988;-74
2023/06/13 02:02:31;;;;;;;4.50;4.10;;;20.60;32.90;;;;;;20690;6837;123402;-75
2023/06/13 02:04:57;;;;;;;4.32;3.78;;;20.00;33.20;;;;;;20711;6837;118446;-74
2023/06/13 02:07:24;;;;;;;3.87;3.50;;;20.00;33.20;;;;;;20759;6822;117082;-74
2023/06/13 02:09:49;;;;;;;5.30;4.07;;;19.70;33.60;;;;;;20756;6822;117164;-74
2023/06/13 02:12:14;;;;;;;4.50;4.20;;;19.50;34.00;;;;;;20543;6822;307825;-75
2023/06/13 02:14:40;;;;;;;4.62;4.32;;;19.70;34.50;;;;;;20530;6822;307468;-75
2023/06/13 02:17:06;;;;;;;4.40;4.00;;;20.00;34.00;;;;;;20727;6827;118647;-74
2023/06/13 02:19:31;;;;;;;4.60;4.23;;;19.90;33.80;;;;;;20476;6820;277237;-75
2023/06/13 02:21:57;;;;;;;4.18;3.87;;;20.00;33.80;;;;;;20455;6822;336420;-75
2023/06/13 02:24:22;;;;;;;4.20;4.00;;;20.20;33.60;;;;;;20672;6822;117213;-75
2023/06/13 02:26:48;;;;;;;5.27;4.33;;;20.00;33.60;;;;;;20466;6820;309299;-74
2023/06/13 02:29:14;;;;;;;4.70;4.40;;;20.10;34.00;;;;;;20464;6821;307422;-75
2023/06/13 02:31:40;;;;;;;3.70;3.40;;;20.10;33.50;;;;;;20665;6827;117032;-74
2023/06/13 02:34:05;;;;;;;4.20;3.90;;;20.10;33.50;;;;;;20746;6819;116907;-75
2023/06/13 02:36:31;;;;;;;3.67;3.37;;;19.50;34.10;;;;;;20747;6822;117946;-74
2023/06/13 02:38:57;;;;;;;3.73;3.40;;;19.40;34.00;;;;;;20770;6822;117567;-74
2023/06/13 02:41:23;;;;;;;5.12;3.53;;;19.20;34.20;;;;;;20762;6822;117375;-74
2023/06/13 02:43:48;;;;;;;4.10;3.83;;;19.00;34.40;;;;;;20771;6822;119551;-74
2023/06/13 02:46:15;;;;;;;4.30;4.00;;;19.10;35.10;;;;;;20538;6827;306539;-74
2023/06/13 02:48:40;;;;;;;4.30;3.83;;;19.10;35.10;;;;;;20544;6819;306926;-74
2023/06/13 02:51:10;;;;;;;4.83;4.27;;;19.70;34.20;;;;;;20544;6822;307396;-74
2023/06/13 02:53:36;;;;;;;3.80;3.60;;;19.50;34.00;;;;;;20770;6822;118035;-73
2023/06/13 02:56:02;;;;;;;5.60;3.33;;;19.50;34.00;;;;;;20762;6822;117054;-75
2023/06/13 02:58:28;;;;;;;3.80;3.50;;;18.90;34.80;;;;;;20727;6822;118129;-74
2023/06/13 03:00:54;;;;;;;4.80;4.30;;;19.10;35.80;;;;;;20539;6827;282924;-74
2023/06/13 03:03:24;;;;;;;4.83;4.43;;;19.10;35.50;;;;;;20559;6819;310439;-74
2023/06/13 03:05:56;;;;;;;4.03;3.63;;;19.30;35.30;;;;;;20760;6822;117462;-74
2023/06/13 03:08:18;;;;;;;4.93;3.70;;;19.30;35.30;;;;;;20746;6822;117451;-75
2023/06/13 03:10:40;;;;;;;4.80;3.63;;;19.00;35.50;;;;;;20700;6831;120588;-74
2023/06/13 03:13:06;;;;;;;4.30;3.90;;;18.80;35.70;;;;;;20708;6842;117794;-74
2023/06/13 03:15:32;;;;;;;4.10;3.80;;;18.60;35.90;;;;;;20498;6827;306607;-74
2023/06/13 03:17:57;;;;;;;3.80;3.50;;;18.90;36.00;;;;;;20758;6827;117140;-74
2023/06/13 03:20:23;;;;;;;4.03;3.83;;;18.60;35.70;;;;;;20692;6827;119456;-78
2023/06/13 03:22:49;;;;;;;5.32;4.28;;;18.70;35.80;;;;;;20513;6842;308518;-79
2023/06/13 03:25:16;;;;;;;4.53;4.00;;;18.90;35.60;;;;;;20575;6822;306921;-76
2023/06/13 03:27:40;;;;;;;5.40;4.05;;;19.20;34.90;;;;;;20550;6822;311959;-79
2023/06/13 03:30:07;;;;;;;4.20;3.90;;;19.40;34.60;;;;;;20552;6822;311895;-76
2023/06/13 03:32:31;;;;;;;15.97;14.00;;;19.60;34.60;;;;;;20718;6828;124191;-77
2023/06/13 03:34:57;;;;;;;3.93;3.63;;;19.40;34.60;;;;;;20775;6823;121525;-77
2023/06/13 03:37:23;;;;;;;4.00;3.50;;;18.80;35.10;;;;;;20745;6820;117140;-74
2023/06/13 03:39:50;;;;;;;4.00;3.70;;;18.70;34.90;;;;;;20781;6819;118523;-75
2023/06/13 03:42:17;;;;;;;4.20;3.90;;;18.70;35.70;;;;;;20562;6821;278357;-74
2023/06/13 03:44:46;;;;;;;3.60;3.40;;;18.70;35.60;;;;;;20558;6840;118761;-73
2023/06/13 03:47:08;;;;;;;3.62;3.33;;;18.70;35.30;;;;;;20777;6819;117489;-74
2023/06/13 03:49:34;;;;;;;3.47;3.23;;;18.60;35.30;;;;;;20764;6821;117488;-74
2023/06/13 03:52:00;;;;;;;4.13;3.83;;;18.40;35.30;;;;;;20556;6822;307552;-73
2023/06/13 03:54:26;;;;;;;3.80;3.60;;;18.70;36.10;;;;;;20757;6822;120902;-73
2023/06/13 03:56:52;;;;;;;4.28;3.97;;;18.70;35.90;;;;;;20544;6822;307303;-73
2023/06/13 03:59:18;;;;;;;3.50;3.30;;;18.90;35.10;;;;;;20754;6827;118574;-73
2023/06/13 04:01:44;;;;;;;4.28;3.90;;;19.00;34.90;;;;;;20550;6819;308433;-73
2023/06/13 04:04:10;;;;;;;3.70;3.40;;;19.00;34.90;;;;;;20780;6822;117059;-74
2023/06/13 04:06:37;;;;;;;3.77;3.40;;;18.60;34.90;;;;;;20755;6822;185136;-73
2023/06/13 04:09:04;;;;;;;3.30;3.03;;;18.60;35.00;;;;;;20756;6827;117229;-73
2023/06/13 04:11:29;;;;;;;3.60;3.25;;;18.40;35.20;;;;;;20776;6819;118264;-73
2023/06/13 04:13:53;;;;;;;3.50;3.30;;;18.20;35.40;;;;;;20762;6822;117004;-73
2023/06/13 04:16:18;;;;;;;4.07;3.57;;;18.10;35.60;;;;;;20551;6822;307053;-73
2023/06/13 04:18:45;;;;;;;3.83;3.53;;;18.30;36.20;;;;;;20765;6827;121051;-73
2023/06/13 04:21:10;;;;;;;6.07;3.80;;;18.50;35.80;;;;;;20572;6820;306176;-73
2023/06/13 04:23:37;;;;;;;3.92;3.70;;;18.70;35.50;;;;;;20557;6822;277500;-73
2023/06/13 04:26:07;;;;;;;3.87;3.63;;;19.00;35.20;;;;;;20763;6822;119140;-74
2023/06/13 04:28:32;;;;;;;4.07;3.70;;;19.00;34.90;;;;;;20541;6822;277966;-73
2023/06/13 04:30:57;;;;;;;3.53;3.33;;;19.00;35.00;;;;;;20741;6827;117943;-74
2023/06/13 04:33:24;;;;;;;3.70;3.50;;;18.80;34.80;;;;;;20785;6820;117761;-74
2023/06/13 04:35:49;;;;;;;3.90;3.47;;;18.60;35.00;;;;;;20546;6822;311562;-74
2023/06/13 04:38:15;;;;;;;3.80;3.50;;;19.10;34.80;;;;;;20551;6822;306135;-74
2023/06/13 04:40:41;;;;;;;4.00;3.60;;;19.00;35.10;;;;;;20736;6822;119632;-76
2023/06/13 04:43:08;;;;;;;3.92;3.70;;;19.00;35.10;;;;;;20536;6827;336428;-75
2023/06/13 04:45:33;;;;;;;3.70;3.40;;;19.20;35.40;;;;;;20781;6820;120187;-76
2023/06/13 04:48:01;;;;;;;4.13;3.83;;;19.10;35.20;;;;;;20551;6822;306705;-74
2023/06/13 04:50:25;;;;;;;3.92;3.72;;;19.60;36.20;;;;;;20516;6820;343874;-74
2023/06/13 04:52:53;;;;;;;5.47;3.70;;;19.60;36.20;;;;;;20712;6826;118284;-74
2023/06/13 04:55:16;;;;;;;4.23;3.93;;;19.50;36.00;;;;;;20545;6819;277371;-78
2023/06/13 04:57:43;;;;;;;4.27;3.37;;;19.70;36.30;;;;;;20768;6822;117037;-79
2023/06/13 05:00:09;;;;;;;5.07;3.83;;;19.60;36.00;;;;;;20538;6822;305639;-75
2023/06/13 05:02:34;;;;;;;4.33;3.30;;;19.80;35.60;;;;;;20711;6827;123406;-74
2023/06/13 05:05:00;;;;;;;4.47;4.00;;;19.70;35.70;;;;;;20567;6819;300893;-74
2023/06/13 05:07:28;;;;;;;3.70;3.40;;;19.90;35.80;;;;;;20749;6821;114867;-74
2023/06/13 05:09:51;;;;;;;4.33;3.93;;;19.90;35.70;;;;;;20523;6822;277956;-73
2023/06/13 05:12:18;;;;;;;4.80;3.67;;;20.00;34.80;;;;;;20748;6822;118355;-74
2023/06/13 05:14:43;;;;;;;4.27;3.63;;;20.00;34.80;;;;;;20766;6822;117217;-74
2023/06/13 05:17:12;;;;;;;3.90;3.60;;;19.70;34.90;;;;;;20615;6827;117077;-74
2023/06/13 05:19:34;;;;;;;3.80;3.50;;;19.50;35.00;;;;;;20680;6819;118620;-74
2023/06/13 05:22:08;;;;;;;3.87;3.67;;;19.30;35.10;;;;;;20708;6822;121807;-75
2023/06/13 05:24:34;;;;;;;4.25;3.85;;;19.20;35.30;;;;;;20416;6842;310831;-75
2023/06/13 05:27:00;;;;;;;3.70;3.40;;;19.40;35.40;;;;;;20715;6822;117241;-74
2023/06/13 05:29:26;;;;;;;4.53;4.12;;;19.50;35.10;;;;;;20484;6827;307435;-77
2023/06/13 05:31:51;;;;;;;4.78;4.30;;;19.70;34.20;;;;;;20538;6820;339805;-80
2023/06/13 05:34:16;;;;;;;3.53;3.23;;;20.00;33.80;;;;;;20745;6822;117154;-75
2023/06/13 05:36:42;;;;;;;4.10;3.83;;;20.00;33.80;;;;;;20504;6837;278633;-78
2023/06/13 05:39:08;;;;;;;3.73;3.33;;;20.20;33.10;;;;;;20785;6822;116974;-77
2023/06/13 05:41:34;;;;;;;4.03;3.60;;;20.20;33.20;;;;;;20575;6822;277082;-78
2023/06/13 05:43:59;;;;;;;4.13;3.73;;;20.20;33.10;;;;;;20772;6822;118923;-77
2023/06/13 05:46:25;;;;;;;4.33;3.93;;;20.20;33.40;;;;;;20566;6822;277704;-77
2023/06/13 05:48:51;;;;;;;3.77;3.43;;;20.30;33.30;;;;;;20779;6822;121243;-78
2023/06/13 05:51:16;;;;;;;5.33;3.80;;;20.30;33.20;;;;;;20567;6822;307087;-78
2023/06/13 05:53:42;;;;;;;3.50;3.30;;;20.50;32.90;;;;;;20757;6822;118593;-77
2023/06/13 05:56:08;;;;;;;3.25;3.05;;;20.30;33.40;;;;;;20751;6827;118350;-77
2023/06/13 05:58:33;;;;;;;7.07;3.60;;;20.30;33.40;;;;;;20756;6820;120881;-78
2023/06/13 06:01:00;;;;;;;3.87;3.57;;;20.20;33.50;;;;;;20573;6820;337816;-78
2023/06/13 06:03:25;;;;;;;3.63;3.33;;;20.70;33.00;;;;;;20779;6821;119464;-77
2023/06/13 06:05:52;;;;;;;3.95;3.40;;;21.00;32.60;;;;;;20585;6821;307683;-77
2023/06/13 06:08:18;;;;;;;3.50;3.30;;;21.00;32.60;;;;;;20772;6827;118491;-79
2023/06/13 06:10:44;;;;;;;5.23;3.17;;;21.70;33.30;;;;;;20606;6819;117458;-74
2023/06/13 06:13:09;;;;;;;4.40;2.97;;;21.60;33.10;;;;;;20784;6822;118310;-79
2023/06/13 06:15:36;;;;;;;4.07;3.50;;;22.20;33.10;;;;;;20571;6822;281204;-78
2023/06/13 06:18:03;;;;;;;3.78;3.00;;;24.00;28.10;;;;;;20573;6822;311587;-77
2023/06/13 06:20:28;;;;;;;3.07;2.80;;;24.00;28.00;;;;;;20753;6822;118320;-77
2023/06/13 06:22:54;;;;;;;3.83;3.40;;;24.60;28.30;;;;;;20517;6840;337563;-78
2023/06/13 06:25:20;;;;;;;4.17;3.40;;;25.80;25.30;;;;;;20578;6819;305989;-77
2023/06/13 06:27:47;;;;;;;3.40;3.10;;;26.30;24.90;;;;;;20574;6822;278271;-74
2023/06/13 06:30:12;;;;;;;3.43;3.23;;;26.30;24.90;;;;;;20787;6822;117039;-75
2023/06/13 06:32:38;;;;;;;3.10;2.90;;;26.70;24.70;;;;;;20550;6822;310876;-74
2023/06/13 06:35:05;;;;;;;3.30;3.00;;;26.70;24.70;;;;;;20786;6822;117076;-74
2023/06/13 06:37:32;;;;;;;3.77;2.90;;;26.90;25.20;;;;;;20786;6822;118721;-74
2023/06/13 06:39:57;;;;;;;3.10;2.80;;;26.80;25.30;;;;;;20775;6822;117279;-75
2023/06/13 06:42:23;;;;;;;2.77;2.67;;;26.80;25.20;;;;;;20750;6827;117583;-75
2023/06/13 06:44:49;;;;;;;3.67;3.25;;;26.60;24.80;;;;;;20596;6820;306360;-74
2023/06/13 06:47:14;;;;;;;3.60;3.30;;;26.90;23.60;;;;;;20571;6822;307142;-75
2023/06/13 06:49:40;;;;;;;3.57;3.00;;;27.40;23.40;;;;;;20780;6822;123121;-75
2023/06/13 06:52:06;;;;;;;3.77;3.20;;;27.40;23.70;;;;;;20571;6822;278631;-75
2023/06/13 06:54:32;;;;;;;3.20;3.00;;;27.60;22.60;;;;;;20537;6827;307767;-75
2023/06/13 06:56:57;;;;;;;4.90;3.20;;;27.80;22.00;;;;;;20579;6820;324786;-73
2023/06/13 06:59:23;;;;;;;5.10;3.22;;;27.90;22.20;;;;;;20572;6822;288632;-74
2023/06/13 07:01:52;;;;;;;3.50;2.63;;;28.00;22.00;;;;;;20792;6822;118233;-76
2023/06/13 07:04:21;;;;;;;3.50;3.10;;;27.80;22.50;;;;;;20512;6835;280549;-75
2023/06/13 07:06:43;;;;;;;3.20;3.00;;;27.80;22.20;;;;;;20501;6840;335833;-73
2023/06/13 07:09:10;;;;;;;3.40;3.10;;;28.30;22.40;;;;;;20525;6824;278069;-73
2023/06/13 07:11:35;;;;;;;3.75;3.45;;;28.20;21.80;;;;;;20572;6819;308011;-74
2023/06/13 07:14:00;;;;;;;3.70;3.00;;;28.40;21.90;;;;;;20567;6822;311000;-74
2023/06/13 07:16:26;;;;;;;6.70;2.97;;;28.50;21.70;;;;;;20814;6807;117104;-73
2023/06/13 07:18:51;;;;;;;6.97;3.20;;;28.30;22.20;;;;;;20548;6829;277956;-74
2023/06/13 07:21:18;;;;;;;4.60;2.92;;;28.30;21.90;;;;;;20528;6829;308995;-74
2023/06/13 07:23:43;;;;;;;3.00;2.77;;;28.30;21.90;;;;;;20752;6832;117136;-73
2023/06/13 07:26:09;;;;;;;7.17;3.17;;;28.10;22.10;;;;;;20753;6832;120032;-73
2023/06/13 07:28:34;;;;;;;4.27;3.30;;;27.80;22.30;;;;;;20505;6832;307483;-73
2023/06/13 07:31:01;;;;;;;5.32;3.25;;;27.70;22.00;;;;;;20733;6834;118352;-73
2023/06/13 07:33:26;;;;;;;3.50;3.20;;;27.40;22.40;;;;;;20515;6838;278726;-73
2023/06/13 07:35:53;;;;;;;3.80;3.37;;;27.40;22.20;;;;;;20521;6838;341361;-72
2023/06/13 07:38:19;;;;;;;3.10;2.90;;;27.30;22.30;;;;;;20710;6838;147632;-73
2023/06/13 07:40:44;;;;;;;4.90;2.90;;;27.30;22.20;;;;;;20770;6822;117834;-72
2023/06/13 07:43:09;;;;;;;3.10;2.87;;;26.90;22.20;;;;;;20788;6822;118607;-73
2023/06/13 07:45:35;;;;;;;6.60;3.10;;;26.60;22.20;;;;;;20783;6822;117025;-72
2023/06/13 07:48:01;;;;;;;5.23;3.20;;;26.20;22.30;;;;;;20572;6822;328228;-73
2023/06/13 07:50:29;;;;;;;4.22;3.20;;;26.10;22.20;;;;;;20763;6822;117498;-74
2023/06/13 07:52:55;;;;;;;3.50;3.20;;;26.10;22.10;;;;;;20788;6822;118200;-73
2023/06/13 07:55:21;;;;;;;2.50;2.40;;;25.90;22.40;;;;;;20760;6828;121422;-73
2023/06/13 07:57:46;;;;;;;3.03;2.83;;;25.80;22.80;;;;;;20776;6822;117115;-73
2023/06/13 08:00:14;;;;;;;3.53;3.23;;;26.10;23.40;;;;;;20572;6822;310850;-73
2023/06/13 08:02:38;;;;;;;4.93;3.40;;;26.00;23.30;;;;;;20498;6837;308600;-73
2023/06/13 08:05:06;;;;;;;3.83;3.10;;;26.50;22.80;;;;;;20789;6822;116979;-73
2023/06/13 08:07:29;;;;;;;3.77;3.20;;;26.70;22.70;;;;;;20783;6822;120842;-73
2023/06/13 08:09:55;;;;;;;3.07;2.87;;;26.60;22.50;;;;;;20790;6822;117916;-73
2023/06/13 08:12:21;;;;;;;3.30;3.10;;;26.40;22.30;;;;;;20736;6827;118406;-73
2023/06/13 08:14:46;;;;;;;3.78;3.42;;;26.20;22.30;;;;;;20556;6827;310000;-73
2023/06/13 08:17:12;;;;;;;5.00;3.35;;;26.40;21.50;;;;;;20534;6829;281434;-73
2023/06/13 08:19:38;;;;;;;3.70;3.27;;;26.70;21.50;;;;;;20723;6842;71911;-73
2023/06/13 08:22:03;;;;;;;3.70;3.40;;;26.80;21.80;;;;;;20560;6816;277257;-73
2023/06/13 08:24:28;;;;;;;3.37;3.10;;;26.90;22.30;;;;;;20541;6816;278482;-74
2023/06/13 08:26:54;;;;;;;4.57;3.00;;;27.20;21.80;;;;;;20782;6819;121051;-73
2023/06/13 08:29:20;;;;;;;5.17;4.67;;;27.40;22.30;;;;;;20553;6830;277535;-73
2023/06/13 08:31:46;;;;;;;5.20;3.60;;;27.40;22.20;;;;;;20548;6830;337103;-73
2023/06/13 08:34:11;;;;;;;3.10;3.00;;;27.60;22.00;;;;;;20762;6830;117575;-73
2023/06/13 08:36:38;;;;;;;3.60;3.30;;;27.70;21.20;;;;;;20544;6826;278117;-73
2023/06/13 08:39:04;;;;;;;7.67;3.27;;;27.70;21.20;;;;;;20714;6835;117003;-73
2023/06/13 08:41:29;;;;;;;4.60;3.57;;;27.60;21.30;;;;;;20718;6842;117045;-73
2023/06/13 08:43:55;;;;;;;3.50;3.20;;;27.40;21.80;;;;;;20721;6840;117103;-73
2023/06/13 08:46:20;;;;;;;4.90;3.10;;;27.20;22.00;;;;;;20699;6837;119875;-73
2023/06/13 08:48:46;;;;;;;4.00;3.43;;;27.00;21.80;;;;;;20771;6827;118802;-73
2023/06/13 08:51:14;;;;;;;3.50;3.30;;;26.90;21.80;;;;;;20525;6827;280058;-73
2023/06/13 08:53:37;;;;;;;4.05;3.75;;;27.50;21.40;;;;;;20564;6822;277965;-73
2023/06/13 08:56:04;;;;;;;5.10;3.23;;;27.50;21.40;;;;;;20781;6822;121164;-73
2023/06/13 08:58:30;;;;;;;5.23;3.13;;;27.60;21.60;;;;;;20760;6822;117116;-73
2023/06/13 09:00:57;;;;;;;3.77;3.47;;;27.50;21.70;;;;;;20772;6822;117307;-73
2023/06/13 09:03:25;;;;;;;3.95;3.45;;;27.50;21.80;;;;;;20574;6822;279260;-73
2023/06/13 09:05:50;;;;;;;5.93;3.23;;;27.70;21.40;;;;;;20554;6827;307828;-73
2023/06/13 09:08:16;;;;;;;3.27;3.07;;;28.10;21.20;;;;;;20780;6822;117625;-73
2023/06/13 09:10:42;;;;;;;3.60;3.30;;;28.00;21.80;;;;;;20724;6837;118759;-73
2023/06/13 09:13:08;;;;;;;3.60;2.90;;;28.00;21.80;;;;;;20755;6827;117129;-73
2023/06/13 09:15:33;;;;;;;3.62;3.33;;;28.00;21.90;;;;;;20555;6820;335420;-73
2023/06/13 09:17:59;;;;;;;3.33;3.10;;;28.20;20.80;;;;;;20732;6838;121370;-74
2023/06/13 09:20:26;;;;;;;3.33;3.20;;;28.10;20.80;;;;;;20764;6820;117560;-73
2023/06/13 09:22:50;;;;;;;3.60;3.30;;;28.00;21.00;;;;;;20533;6820;278706;-73
2023/06/13 09:25:16;;;;;;;5.53;3.60;;;28.10;21.20;;;;;;20555;6820;300604;-73
2023/06/13 09:27:41;;;;;;;3.58;3.35;;;28.30;21.20;;;;;;20533;6828;337307;-73
2023/06/13 09:30:08;;;;;;;4.00;3.70;;;28.60;20.60;;;;;;20727;6830;117593;-73
2023/06/13 09:32:33;;;;;;;7.40;3.30;;;28.50;20.60;;;;;;20676;6835;117617;-73
2023/06/13 09:34:58;;;;;;;4.47;3.30;;;28.20;20.40;;;;;;20725;6835;117202;-73
2023/06/13 09:37:25;;;;;;;3.35;3.15;;;28.10;20.60;;;;;;20515;6837;280494;-73
2023/06/13 09:39:56;;;;;;;4.60;3.33;;;28.20;20.60;;;;;;20738;6837;117429;-73
2023/06/13 09:42:25;;;;;;;3.83;3.20;;;28.30;20.50;;;;;;20715;6831;151342;-73
2023/06/13 09:44:50;;;;;;;4.00;3.70;;;28.20;20.20;;;;;;20505;6837;341937;-72
2023/06/13 09:47:19;;;;;;;4.00;3.35;;;28.30;19.20;;;;;;20520;6834;277956;-72
2023/06/13 09:49:45;;;;;;;6.77;3.20;;;28.50;19.80;;;;;;20706;6834;117094;-72
2023/06/13 09:52:10;;;;;;;3.70;3.30;;;28.60;20.00;;;;;;20723;6836;117080;-74
2023/06/13 09:54:37;;;;;;;3.87;3.47;;;28.50;20.10;;;;;;20506;6836;408381;-73
2023/06/13 09:57:02;;;;;;;4.55;3.40;;;28.90;19.80;;;;;;20461;6852;278610;-73
2023/06/13 09:59:28;;;;;;;6.83;3.73;;;28.90;19.30;;;;;;20671;6857;117063;-73
2023/06/13 10:01:54;;;;;;;3.77;3.30;;;28.80;19.50;;;;;;20467;6847;311313;-75
2023/06/13 10:04:21;;;;;;;3.43;3.20;;;28.90;20.10;;;;;;20713;6834;153860;-75
2023/06/13 10:06:46;;;;;;;3.75;3.35;;;28.90;19.60;;;;;;20540;6827;335452;-73
2023/06/13 10:09:12;;;;;;;3.20;3.00;;;29.00;18.70;;;;;;20565;6827;307487;-74
2023/06/13 10:11:37;;;;;;;3.67;3.37;;;29.30;19.20;;;;;;20730;6834;117047;-73
2023/06/13 10:14:11;;;;;;;4.53;3.60;;;29.30;18.90;;;;;;20521;6835;277108;-76
2023/06/13 10:16:36;;;;;;;3.47;3.20;;;29.30;18.30;;;;;;20538;6807;286871;-77
2023/06/13 10:19:02;;;;;;;6.03;3.33;;;29.50;19.50;;;;;;20733;6822;122787;-76
2023/06/13 10:21:27;;;;;;;3.50;3.20;;;29.50;19.20;;;;;;20535;6822;311865;-75
2023/06/13 10:23:53;;;;;;;5.73;2.97;;;29.50;18.70;;;;;;20762;6822;117721;-75
2023/06/13 10:26:42;;;;;;;3.70;3.40;;;29.50;18.90;;;;;;20537;6825;281497;-76
2023/06/13 10:29:23;;;;;;;4.60;3.20;;;29.60;18.40;;;;;;20553;6827;308076;-76
2023/06/13 10:31:56;;;;;;;5.87;2.80;;;29.90;18.50;;;;;;20777;6822;117531;-76
2023/06/13 10:34:34;;;;;;;3.60;3.30;;;29.80;18.80;;;;;;20546;6822;277468;-74
2023/06/13 10:37:16;;;;;;;7.80;3.50;;;29.90;20.20;;;;;;20554;6822;305935;-74
2023/06/13 10:40:04;;;;;;;3.00;2.87;;;30.10;18.90;;;;;;20762;6822;117201;-74
2023/06/13 10:42:37;;;;;;;4.43;3.40;;;30.00;19.70;;;;;;20517;6831;298828;-74
2023/06/13 10:45:07;;;;;;;3.27;3.07;;;30.00;18.20;;;;;;20750;6828;117099;-75
2023/06/13 10:47:33;;;;;;;4.40;3.55;;;29.70;18.60;;;;;;20553;6826;307161;-74
2023/06/13 10:49:59;;;;;;;3.20;3.03;;;29.40;19.20;;;;;;20675;6842;121457;-75
2023/06/13 10:52:25;;;;;;;3.95;3.42;;;29.40;18.60;;;;;;20466;6837;308169;-74
2023/06/13 10:54:51;;;;;;;4.30;3.50;;;29.40;18.60;;;;;;20500;6841;306986;-73
2023/06/13 10:57:16;;;;;;;4.00;3.33;;;29.60;18.10;;;;;;20504;6837;308234;-80
2023/06/13 10:59:42;;;;;;;5.53;3.57;;;29.70;18.30;;;;;;20729;6837;123436;-74
2023/06/13 11:02:15;;;;;;;3.50;3.20;;;29.60;18.50;;;;;;20521;6837;306994;-77
2023/06/13 11:04:48;;;;;;;4.03;3.50;;;29.60;19.00;;;;;;20488;6837;277702;-80
2023/06/13 11:07:23;;;;;;;3.50;3.20;;;29.70;18.90;;;;;;20688;6837;117095;-77
2023/06/13 11:10:11;;;;;;;5.32;3.60;;;29.60;18.60;;;;;;20520;6837;336105;-78
2023/06/13 11:12:37;;;;;;;4.00;3.17;;;29.60;18.30;;;;;;20667;6852;118142;-79
2023/06/13 11:15:03;;;;;;;3.10;2.87;;;29.40;18.50;;;;;;20696;6842;117680;-79
2023/06/13 11:17:29;;;;;;;5.37;3.47;;;29.10;19.00;;;;;;20758;6825;118295;-78
2023/06/13 11:19:56;;;;;;;4.63;3.03;;;29.10;19.00;;;;;;20779;6819;117394;-75
2023/06/13 11:22:21;;;;;;;4.07;3.40;;;29.00;19.30;;;;;;20516;6819;336445;-75
2023/06/13 11:24:46;;;;;;;5.00;3.13;;;29.10;19.20;;;;;;20727;6840;117741;-80
2023/06/13 11:27:13;;;;;;;4.73;3.30;;;28.80;19.20;;;;;;20727;6837;118615;-76
2023/06/13 11:29:38;;;;;;;6.10;3.50;;;28.80;19.20;;;;;;20700;6835;119907;-75
2023/06/13 11:32:06;;;;;;;4.30;3.50;;;28.70;19.30;;;;;;20784;6822;120115;-74
2023/06/13 11:34:29;;;;;;;5.87;3.23;;;28.60;19.30;;;;;;20714;6822;118260;-75
2023/06/13 11:36:55;;;;;;;3.20;3.00;;;28.50;19.30;;;;;;20731;6835;120019;-75
2023/06/13 11:39:27;;;;;;;4.20;3.80;;;28.50;19.20;;;;;;20469;6835;292242;-76
2023/06/13 11:41:54;;;;;;;4.67;3.70;;;28.70;19.10;;;;;;20510;6835;307294;-77
2023/06/13 11:44:19;;;;;;;7.33;3.50;;;29.00;19.20;;;;;;20729;6835;117538;-76
2023/06/13 11:46:46;;;;;;;5.87;3.33;;;29.20;19.30;;;;;;20539;6835;304888;-76
2023/06/13 11:49:14;;;;;;;3.80;3.40;;;29.20;19.30;;;;;;20752;6835;117024;-76
2023/06/13 11:51:41;;;;;;;3.87;3.50;;;29.10;19.20;;;;;;20537;6835;276740;-76
2023/06/13 11:54:07;;;;;;;5.47;3.20;;;29.20;19.20;;;;;;20726;6837;118903;-75
2023/06/13 11:56:36;;;;;;;3.80;3.50;;;29.20;19.10;;;;;;20455;6852;308928;-75
2023/06/13 11:58:58;;;;;;;3.57;3.27;;;29.30;19.10;;;;;;20509;6833;277953;-76
2023/06/13 12:01:25;;;;;;;3.90;3.60;;;29.40;18.90;;;;;;20737;6834;117136;-76
2023/06/13 12:03:49;;;;;;;4.32;3.55;;;29.30;18.80;;;;;;20542;6825;277297;-76
2023/06/13 12:06:15;;;;;;;4.20;3.50;;;29.30;18.50;;;;;;20551;6827;278830;-76
2023/06/13 12:08:42;;;;;;;4.27;3.50;;;29.50;18.50;;;;;;20542;6825;311029;-76
2023/06/13 12:11:11;;;;;;;3.47;3.17;;;29.50;18.60;;;;;;20749;6825;118334;-76
2023/06/13 12:13:38;;;;;;;3.70;3.40;;;29.40;18.80;;;;;;20558;6825;281922;-75
2023/06/13 12:16:05;;;;;;;4.37;3.63;;;29.40;20.00;;;;;;20775;6825;116950;-78
2023/06/13 12:18:30;;;;;;;3.90;3.03;;;29.40;19.40;;;;;;20746;6825;121066;-76
2023/06/13 12:20:56;;;;;;;4.30;3.90;;;29.10;19.50;;;;;;20560;6825;306280;-76
2023/06/13 12:23:21;;;;;;;3.83;3.50;;;29.20;19.30;;;;;;20549;6825;307003;-75
2023/06/13 12:25:47;;;;;;;5.20;3.60;;;29.40;18.80;;;;;;20563;6825;306314;-78
2023/06/13 12:28:15;;;;;;;5.90;4.00;;;29.50;18.80;;;;;;20561;6825;277059;-76
2023/06/13 12:30:42;;;;;;;5.30;3.45;;;29.70;18.90;;;;;;20524;6825;306034;-76
2023/06/13 12:33:07;;;;;;;6.03;3.70;;;29.80;19.20;;;;;;20772;6825;117340;-75